Time;durP1;ratioP1;P1;durP2;ratioP2;P2;SDS_P1;SDS_P2;PMS_P1;PMS_P2;Temp;Humidity;BMP_temperature;BMP_pressure;BME280_temperature;BME280_humidity;BME280_pressure;Samples;Min_cycle;Max_cycle;Signal;HPM_P1;HPM_P2
2022/03/15 00:01:03;;;;;;;9.13;5.93;;;8.40;99.90;;;;;;5041478;28;20498;-70
2022/03/15 00:03:29;;;;;;;8.73;4.70;;;8.40;99.90;;;;;;5023973;28;20929;-68
2022/03/15 00:05:55;;;;;;;4.63;3.70;;;8.40;99.90;;;;;;5049484;28;20545;-69
2022/03/15 00:08:20;;;;;;;4.33;3.40;;;8.40;99.90;;;;;;5032105;28;20247;-68
2022/03/15 00:10:48;;;;;;;3.77;3.33;;;8.40;99.90;;;;;;5031745;28;20236;-69
2022/03/15 00:13:15;;;;;;;3.80;3.27;;;8.30;99.90;;;;;;5053401;28;20235;-68
2022/03/15 00:15:42;;;;;;;4.30;3.57;;;8.30;99.90;;;;;;5039255;28;20451;-69
2022/03/15 00:18:08;;;;;;;3.80;2.70;;;8.30;99.90;;;;;;5050910;28;20605;-69
2022/03/15 00:20:35;;;;;;;9.23;3.13;;;8.30;99.90;;;;;;5037314;28;20458;-70
2022/03/15 00:23:01;;;;;;;3.80;2.57;;;8.30;99.90;;;;;;5041533;28;20827;-69
2022/03/15 00:25:27;;;;;;;3.40;3.10;;;8.30;99.90;;;;;;5034023;28;20458;-70
2022/03/15 00:27:54;;;;;;;5.77;3.00;;;8.30;99.90;;;;;;5031631;28;20228;-70
2022/03/15 00:30:22;;;;;;;2.90;2.63;;;8.20;99.90;;;;;;5014946;28;20451;-69
2022/03/15 00:32:51;;;;;;;5.13;2.60;;;8.20;99.90;;;;;;5032255;28;20459;-69
2022/03/15 00:35:18;;;;;;;5.00;2.77;;;8.20;99.90;;;;;;5037897;28;20535;-69
2022/03/15 00:37:48;;;;;;;3.00;2.80;;;8.20;99.90;;;;;;5036055;28;20222;-69
2022/03/15 00:40:15;;;;;;;3.10;2.77;;;8.10;99.90;;;;;;5049980;28;20454;-69
2022/03/15 00:42:49;;;;;;;3.47;2.70;;;8.10;99.90;;;;;;5051718;28;20538;-69
2022/03/15 00:45:15;;;;;;;3.97;3.07;;;8.10;99.90;;;;;;5026250;28;20886;-69
2022/03/15 00:47:44;;;;;;;5.47;3.30;;;8.10;99.90;;;;;;5033323;28;20466;-70
2022/03/15 00:50:12;;;;;;;4.50;3.87;;;8.10;99.90;;;;;;5026162;28;20493;-68
2022/03/15 00:52:38;;;;;;;6.07;3.87;;;8.10;99.90;;;;;;5044436;28;20455;-70
2022/03/15 00:55:05;;;;;;;4.00;3.60;;;8.10;99.90;;;;;;5020226;28;20232;-67
2022/03/15 00:57:32;;;;;;;8.03;3.63;;;8.10;99.90;;;;;;5038887;28;20213;-69
2022/03/15 00:59:58;;;;;;;7.30;4.83;;;8.00;99.90;;;;;;5028066;28;20451;-70
2022/03/15 01:02:23;;;;;;;8.27;3.50;;;8.00;99.90;;;;;;5028673;28;20954;-69
2022/03/15 01:04:50;;;;;;;4.87;3.67;;;8.00;99.90;;;;;;5028768;28;20629;-68
2022/03/15 01:07:16;;;;;;;4.80;3.10;;;8.00;99.90;;;;;;5031729;28;20308;-69
2022/03/15 01:09:42;;;;;;;4.10;2.80;;;8.00;99.90;;;;;;5018686;28;20607;-70
2022/03/15 01:12:09;;;;;;;4.33;3.00;;;8.00;99.90;;;;;;5019246;28;20232;-69
2022/03/15 01:14:35;;;;;;;6.10;3.03;;;8.00;99.90;;;;;;5034313;28;20220;-68
2022/03/15 01:17:02;;;;;;;6.90;2.50;;;7.90;99.90;;;;;;5034212;28;20466;-70
2022/03/15 01:19:28;;;;;;;5.60;3.27;;;8.00;99.90;;;;;;5022455;28;20449;-69
2022/03/15 01:21:55;;;;;;;13.73;4.33;;;8.00;99.90;;;;;;5062617;28;20232;-70
2022/03/15 01:24:21;;;;;;;3.30;3.00;;;8.00;99.90;;;;;;5026253;28;20530;-69
2022/03/15 01:26:47;;;;;;;4.70;3.00;;;8.00;99.90;;;;;;5032588;28;20439;-69
2022/03/15 01:29:13;;;;;;;3.30;3.00;;;8.00;99.90;;;;;;5032875;28;20447;-68
2022/03/15 01:31:39;;;;;;;7.07;3.40;;;7.90;99.90;;;;;;5030780;28;20320;-69
2022/03/15 01:34:05;;;;;;;2.83;2.63;;;7.90;99.90;;;;;;5044687;28;20662;-69
2022/03/15 01:36:34;;;;;;;5.40;3.30;;;7.90;99.90;;;;;;5027912;28;20476;-69
2022/03/15 01:39:00;;;;;;;5.60;3.33;;;7.90;99.90;;;;;;5041447;28;20534;-68
2022/03/15 01:41:28;;;;;;;4.43;3.03;;;7.90;99.90;;;;;;5030788;28;20464;-69
2022/03/15 01:43:55;;;;;;;4.17;3.10;;;7.90;99.90;;;;;;5021772;28;20508;-69
2022/03/15 01:46:20;;;;;;;3.57;3.27;;;7.90;99.90;;;;;;5042731;28;20460;-68
2022/03/15 01:48:46;;;;;;;4.00;3.43;;;7.90;99.90;;;;;;5029365;28;20217;-68
2022/03/15 01:51:15;;;;;;;9.93;3.23;;;7.90;99.90;;;;;;5031095;28;20229;-70
2022/03/15 01:53:41;;;;;;;3.90;3.17;;;7.90;99.90;;;;;;5030138;28;20502;-69
2022/03/15 01:56:07;;;;;;;4.63;3.10;;;7.90;99.90;;;;;;5021092;28;20533;-69
2022/03/15 01:58:33;;;;;;;6.30;3.10;;;7.90;99.90;;;;;;5040894;28;20455;-70
2022/03/15 02:01:02;;;;;;;4.70;3.00;;;7.80;99.90;;;;;;5027900;28;20458;-69
2022/03/15 02:03:29;;;;;;;4.53;2.87;;;7.80;99.90;;;;;;5034370;28;20459;-70
2022/03/15 02:05:55;;;;;;;3.60;3.00;;;7.80;99.90;;;;;;5035652;28;20457;-70
2022/03/15 02:08:21;;;;;;;5.13;3.50;;;7.80;99.90;;;;;;5040075;28;20459;-69
2022/03/15 02:10:46;;;;;;;4.00;3.10;;;7.80;99.90;;;;;;5049411;28;20242;-69
2022/03/15 02:13:13;;;;;;;4.10;3.70;;;7.80;99.90;;;;;;5031167;28;20221;-68
2022/03/15 02:15:38;;;;;;;4.90;3.73;;;7.80;99.90;;;;;;5030466;28;21089;-69
2022/03/15 02:18:05;;;;;;;4.53;3.50;;;7.80;99.90;;;;;;5030266;28;20588;-70
2022/03/15 02:20:32;;;;;;;5.30;3.60;;;7.70;99.90;;;;;;5047081;28;20596;-70
2022/03/15 02:22:57;;;;;;;6.20;4.13;;;7.70;99.90;;;;;;5011235;28;20475;-68
2022/03/15 02:25:24;;;;;;;5.60;3.43;;;7.70;99.90;;;;;;5012668;28;20962;-68
2022/03/15 02:27:51;;;;;;;5.07;3.40;;;7.70;99.90;;;;;;5048193;28;20224;-69
2022/03/15 02:30:17;;;;;;;3.30;3.00;;;7.60;99.90;;;;;;5027544;28;20546;-69
2022/03/15 02:32:47;;;;;;;3.87;3.47;;;7.60;99.90;;;;;;5024388;28;20979;-69
2022/03/15 02:35:14;;;;;;;5.30;2.80;;;7.70;99.90;;;;;;5042026;28;20923;-68
2022/03/15 02:37:39;;;;;;;3.43;3.13;;;7.70;99.90;;;;;;5028757;28;20451;-68
2022/03/15 02:40:06;;;;;;;3.80;2.93;;;7.70;99.90;;;;;;5040478;28;20538;-70
2022/03/15 02:42:32;;;;;;;4.40;3.10;;;7.70;99.90;;;;;;5028749;28;20216;-68
2022/03/15 02:44:58;;;;;;;4.23;3.60;;;7.60;99.90;;;;;;5040221;28;20462;-69
2022/03/15 02:47:25;;;;;;;3.90;3.30;;;7.60;99.90;;;;;;5028677;28;20242;-69
2022/03/15 02:49:50;;;;;;;4.47;3.70;;;7.60;99.90;;;;;;5032091;28;20578;-68
2022/03/15 02:52:17;;;;;;;4.70;3.50;;;7.60;99.90;;;;;;5039886;28;20212;-68
2022/03/15 02:54:43;;;;;;;4.70;4.00;;;7.60;99.90;;;;;;5028576;28;20220;-69
2022/03/15 02:57:10;;;;;;;4.53;3.33;;;7.60;99.90;;;;;;5031656;28;20859;-69
2022/03/15 02:59:39;;;;;;;6.70;3.43;;;7.60;99.90;;;;;;5035752;28;20215;-69
2022/03/15 03:02:05;;;;;;;3.43;3.13;;;7.60;99.90;;;;;;5038023;28;20483;-69
2022/03/15 03:04:30;;;;;;;4.30;3.47;;;7.60;99.90;;;;;;5016096;28;20494;-68
2022/03/15 03:06:56;;;;;;;5.13;3.80;;;7.60;99.90;;;;;;5030180;28;20451;-69
2022/03/15 03:09:21;;;;;;;6.13;4.20;;;7.60;99.90;;;;;;5042422;28;20216;-69
2022/03/15 03:11:47;;;;;;;3.80;3.37;;;7.60;99.90;;;;;;5027359;28;20318;-69
2022/03/15 03:14:13;;;;;;;4.90;3.80;;;7.50;99.90;;;;;;5049685;28;20223;-68
2022/03/15 03:16:40;;;;;;;4.57;3.80;;;7.60;99.90;;;;;;5028391;28;20224;-68
2022/03/15 03:19:08;;;;;;;8.23;4.20;;;7.50;99.90;;;;;;5019907;28;20358;-69
2022/03/15 03:21:36;;;;;;;5.00;3.43;;;7.50;99.90;;;;;;5033065;28;20462;-69
2022/03/15 03:24:17;;;;;;;3.80;3.40;;;7.50;99.90;;;;;;5032022;28;20455;-68
2022/03/15 03:26:43;;;;;;;4.60;4.10;;;7.50;99.90;;;;;;5030988;28;20984;-69
2022/03/15 03:29:12;;;;;;;5.83;4.77;;;7.50;99.90;;;;;;5038796;28;20451;-70
2022/03/15 03:31:39;;;;;;;8.40;3.93;;;7.50;99.90;;;;;;5039330;28;20240;-69
2022/03/15 03:34:06;;;;;;;10.90;4.00;;;7.40;99.90;;;;;;5025807;28;20542;-68
2022/03/15 03:36:34;;;;;;;5.90;3.70;;;7.40;99.90;;;;;;5010407;28;20510;-69
2022/03/15 03:39:00;;;;;;;7.93;4.30;;;7.40;99.90;;;;;;5030976;28;20533;-69
2022/03/15 03:41:26;;;;;;;5.40;3.63;;;7.40;99.90;;;;;;5039608;28;20451;-67
2022/03/15 03:43:52;;;;;;;5.90;3.90;;;7.40;99.90;;;;;;5031961;28;20491;-69
2022/03/15 03:46:18;;;;;;;6.93;4.70;;;7.40;99.90;;;;;;5021729;28;21000;-72
2022/03/15 03:48:44;;;;;;;6.17;3.80;;;7.40;99.90;;;;;;5038375;28;20815;-70
2022/03/15 03:51:11;;;;;;;6.27;3.80;;;7.40;99.90;;;;;;5037422;28;20223;-69
2022/03/15 03:53:37;;;;;;;4.90;3.90;;;7.40;99.90;;;;;;5037130;28;20463;-67
2022/03/15 03:56:02;;;;;;;4.10;3.43;;;7.40;99.90;;;;;;5032299;28;20554;-67
2022/03/15 03:58:28;;;;;;;4.23;3.40;;;7.40;99.90;;;;;;5032088;28;20220;-69
2022/03/15 04:00:54;;;;;;;6.30;3.80;;;7.40;99.90;;;;;;5035905;28;20258;-70
2022/03/15 04:03:22;;;;;;;5.40;4.77;;;7.40;99.90;;;;;;5016424;28;20228;-69
2022/03/15 04:05:51;;;;;;;5.00;4.60;;;7.40;99.90;;;;;;5029038;28;20451;-70
2022/03/15 04:08:17;;;;;;;8.17;4.50;;;7.40;99.90;;;;;;5011483;28;20984;-70
2022/03/15 04:10:46;;;;;;;7.00;4.57;;;7.40;99.90;;;;;;5023990;28;20949;-68
2022/03/15 04:13:18;;;;;;;4.00;3.60;;;7.40;99.90;;;;;;5042828;28;20454;-69
2022/03/15 04:15:51;;;;;;;14.13;5.10;;;7.30;99.90;;;;;;5046142;28;20456;-69
2022/03/15 04:18:17;;;;;;;7.53;4.93;;;7.30;99.90;;;;;;5035333;28;20459;-69
2022/03/15 04:20:43;;;;;;;7.23;4.93;;;7.30;99.90;;;;;;5022201;28;20458;-70
2022/03/15 04:23:10;;;;;;;7.20;4.17;;;7.40;99.90;;;;;;5049939;28;20725;-69
2022/03/15 04:25:36;;;;;;;8.00;5.10;;;7.40;99.90;;;;;;5033124;28;20586;-68
2022/03/15 04:28:01;;;;;;;12.00;4.70;;;7.40;99.90;;;;;;5030935;28;20455;-68
2022/03/15 04:30:28;;;;;;;5.77;4.23;;;7.30;99.90;;;;;;5033427;28;20993;-69
2022/03/15 04:32:54;;;;;;;11.07;5.47;;;7.30;99.90;;;;;;5035274;28;20231;-69
2022/03/15 04:35:20;;;;;;;8.47;4.90;;;7.30;99.90;;;;;;5031958;28;20989;-67
2022/03/15 04:37:47;;;;;;;9.37;5.20;;;7.30;99.90;;;;;;5046963;28;20475;-69
2022/03/15 04:40:13;;;;;;;8.27;5.40;;;7.30;99.90;;;;;;5038936;28;20278;-68
2022/03/15 04:42:38;;;;;;;9.40;5.13;;;7.30;99.90;;;;;;5048462;28;20995;-69
2022/03/15 04:45:05;;;;;;;7.50;5.10;;;7.30;99.90;;;;;;5031981;28;20596;-69
2022/03/15 04:47:34;;;;;;;8.43;5.73;;;7.30;99.90;;;;;;5034055;28;20463;-68
2022/03/15 04:49:59;;;;;;;9.00;5.50;;;7.30;99.90;;;;;;5031355;28;20475;-69
2022/03/15 04:52:25;;;;;;;10.37;6.60;;;7.30;99.90;;;;;;5022369;28;20226;-69
2022/03/15 04:54:50;;;;;;;8.77;5.40;;;7.30;99.90;;;;;;5031336;28;20715;-69
2022/03/15 04:57:16;;;;;;;9.10;5.17;;;7.30;99.90;;;;;;5034301;28;20676;-69
2022/03/15 04:59:42;;;;;;;6.53;4.57;;;7.30;99.90;;;;;;5035757;28;20715;-70
2022/03/15 05:02:07;;;;;;;15.40;5.43;;;7.30;99.90;;;;;;5033384;28;20228;-70
2022/03/15 05:04:34;;;;;;;9.50;6.67;;;7.30;99.90;;;;;;5046630;28;20296;-69
2022/03/15 05:07:00;;;;;;;8.73;6.40;;;7.30;99.90;;;;;;5030627;28;20223;-71
2022/03/15 05:09:25;;;;;;;11.70;6.93;;;7.30;99.90;;;;;;5013587;28;20456;-67
2022/03/15 05:11:51;;;;;;;13.17;5.87;;;7.30;99.90;;;;;;5027885;28;20244;-69
2022/03/15 05:14:17;;;;;;;11.33;6.77;;;7.30;99.90;;;;;;5052207;28;20236;-68
2022/03/15 05:16:43;;;;;;;7.87;5.40;;;7.30;99.90;;;;;;5042373;28;20239;-69
2022/03/15 05:19:08;;;;;;;10.90;7.83;;;7.30;99.90;;;;;;5016564;28;20221;-69
2022/03/15 05:21:35;;;;;;;10.53;6.23;;;7.30;99.90;;;;;;5041252;28;20236;-68
2022/03/15 05:24:00;;;;;;;10.17;6.30;;;7.30;99.90;;;;;;5038766;28;20298;-68
2022/03/15 05:26:26;;;;;;;7.80;6.60;;;7.30;99.90;;;;;;5046386;28;20478;-67
2022/03/15 05:28:52;;;;;;;10.90;5.77;;;7.30;99.90;;;;;;5030657;28;20220;-68
2022/03/15 05:31:20;;;;;;;10.50;6.80;;;7.20;99.90;;;;;;5051536;28;20235;-70
2022/03/15 05:33:48;;;;;;;7.77;5.70;;;7.20;99.90;;;;;;5051935;28;20455;-69
2022/03/15 05:36:14;;;;;;;12.20;6.47;;;7.20;99.90;;;;;;5025213;28;20452;-70
2022/03/15 05:38:41;;;;;;;9.57;6.60;;;7.20;99.90;;;;;;5039033;28;20521;-69
2022/03/15 05:41:08;;;;;;;9.67;6.50;;;7.20;99.90;;;;;;5031855;28;20529;-70
2022/03/15 05:43:37;;;;;;;8.17;5.67;;;7.20;99.90;;;;;;5037176;28;20487;-69
2022/03/15 05:46:05;;;;;;;8.07;5.30;;;7.20;99.90;;;;;;5038024;28;20493;-69
2022/03/15 05:48:31;;;;;;;11.80;5.10;;;7.20;99.90;;;;;;5037784;28;20464;-68
2022/03/15 05:50:57;;;;;;;7.03;4.70;;;7.20;99.90;;;;;;5028300;28;20986;-71
2022/03/15 05:53:23;;;;;;;6.80;4.83;;;7.20;99.90;;;;;;5032786;28;20503;-70
2022/03/15 05:55:49;;;;;;;7.73;5.40;;;7.20;99.90;;;;;;5043843;28;20477;-68
2022/03/15 05:58:16;;;;;;;6.63;5.77;;;7.20;99.90;;;;;;5028496;28;20516;-70
2022/03/15 06:00:46;;;;;;;7.23;6.00;;;7.20;99.90;;;;;;5025991;28;21078;-70
2022/03/15 06:03:11;;;;;;;10.33;5.93;;;7.20;99.90;;;;;;5029821;28;20806;-68
2022/03/15 06:05:38;;;;;;;8.40;6.50;;;7.20;99.90;;;;;;5050548;28;20567;-68
2022/03/15 06:08:04;;;;;;;8.97;6.70;;;7.20;99.90;;;;;;5033956;28;20217;-70
2022/03/15 06:10:30;;;;;;;12.10;6.40;;;7.20;99.90;;;;;;5030969;28;20475;-70
2022/03/15 06:12:57;;;;;;;7.47;5.50;;;7.20;99.90;;;;;;5025939;28;20483;-69
2022/03/15 06:15:23;;;;;;;7.10;5.07;;;7.20;99.90;;;;;;5033805;28;20683;-70
2022/03/15 06:17:49;;;;;;;9.70;5.67;;;7.20;99.90;;;;;;5035294;28;20454;-69
2022/03/15 06:20:17;;;;;;;8.07;5.60;;;7.20;99.90;;;;;;5026600;28;21050;-70
2022/03/15 06:22:47;;;;;;;8.47;5.97;;;7.20;99.90;;;;;;5010362;28;20584;-70
2022/03/15 06:25:14;;;;;;;11.00;5.70;;;7.20;99.90;;;;;;5041516;28;20465;-69
2022/03/15 06:27:40;;;;;;;6.40;5.13;;;7.10;99.90;;;;;;5024930;28;20991;-71
2022/03/15 06:30:07;;;;;;;7.27;5.60;;;7.20;99.90;;;;;;5025599;28;20502;-69
2022/03/15 06:32:33;;;;;;;9.43;5.43;;;7.20;99.90;;;;;;5040535;28;20216;-70
2022/03/15 06:34:59;;;;;;;9.17;5.17;;;7.20;99.90;;;;;;5048778;28;20454;-71
2022/03/15 06:37:26;;;;;;;6.40;5.27;;;7.20;99.90;;;;;;5045399;28;20442;-70
2022/03/15 06:39:51;;;;;;;11.17;6.00;;;7.20;99.90;;;;;;5035125;28;20456;-70
2022/03/15 06:42:17;;;;;;;11.47;6.20;;;7.20;99.90;;;;;;5033600;28;20458;-69
2022/03/15 06:44:44;;;;;;;6.50;5.50;;;7.20;99.90;;;;;;5032092;28;20700;-69
2022/03/15 06:47:10;;;;;;;10.10;5.20;;;7.20;99.90;;;;;;5034505;28;20236;-69
2022/03/15 06:49:36;;;;;;;6.67;5.50;;;7.20;99.90;;;;;;5038587;28;20481;-69
2022/03/15 06:52:02;;;;;;;7.80;4.83;;;7.20;99.90;;;;;;5012793;28;20976;-69
2022/03/15 06:54:27;;;;;;;5.80;4.33;;;7.20;99.90;;;;;;5017551;28;20281;-69
2022/03/15 06:56:53;;;;;;;8.50;4.30;;;7.20;99.90;;;;;;5030820;28;20246;-69
2022/03/15 06:59:20;;;;;;;7.87;4.80;;;7.20;99.90;;;;;;5011157;28;20239;-69
2022/03/15 07:01:46;;;;;;;9.93;5.77;;;7.20;99.90;;;;;;5020011;28;20368;-69
2022/03/15 07:04:13;;;;;;;10.40;5.57;;;7.20;99.90;;;;;;5035174;28;20447;-69
2022/03/15 07:06:38;;;;;;;13.07;6.03;;;7.20;99.90;;;;;;5031392;28;20475;-70
2022/03/15 07:09:04;;;;;;;7.17;4.90;;;7.20;99.90;;;;;;5032430;28;20221;-68
2022/03/15 07:11:30;;;;;;;8.47;5.33;;;7.20;99.90;;;;;;5049613;28;20308;-70
2022/03/15 07:13:56;;;;;;;9.63;5.60;;;7.20;99.90;;;;;;5033127;28;20220;-71
2022/03/15 07:16:24;;;;;;;11.27;5.67;;;7.20;99.90;;;;;;5029304;28;20217;-70
2022/03/15 07:18:50;;;;;;;10.17;5.70;;;7.20;99.90;;;;;;5031032;28;20471;-69
2022/03/15 07:21:15;;;;;;;10.07;6.17;;;7.20;99.90;;;;;;5031209;28;20699;-68
2022/03/15 07:23:43;;;;;;;9.80;5.90;;;7.30;99.90;;;;;;5045857;28;20270;-69
2022/03/15 07:26:09;;;;;;;8.93;5.80;;;7.20;99.90;;;;;;5024222;28;20221;-71
2022/03/15 07:28:35;;;;;;;10.37;6.03;;;7.30;99.90;;;;;;5014825;28;20448;-71
2022/03/15 07:31:00;;;;;;;6.97;5.87;;;7.30;99.90;;;;;;5016210;28;20244;-70
2022/03/15 07:33:26;;;;;;;8.60;5.37;;;7.30;99.90;;;;;;5036153;28;20232;-69
2022/03/15 07:35:52;;;;;;;9.07;5.00;;;7.30;99.90;;;;;;5030916;28;20692;-70
2022/03/15 07:38:19;;;;;;;8.50;5.40;;;7.30;99.90;;;;;;5025128;28;20213;-70
2022/03/15 07:40:46;;;;;;;6.30;4.87;;;7.30;99.90;;;;;;5026625;28;20299;-68
2022/03/15 07:43:12;;;;;;;6.23;4.37;;;7.30;99.90;;;;;;5026521;28;20479;-68
2022/03/15 07:45:38;;;;;;;6.03;4.70;;;7.30;99.90;;;;;;5029892;28;20546;-71
2022/03/15 07:48:04;;;;;;;6.40;5.10;;;7.40;99.90;;;;;;5030535;28;20604;-69
2022/03/15 07:50:31;;;;;;;8.47;5.60;;;7.30;99.90;;;;;;5018153;28;20239;-69
2022/03/15 07:52:56;;;;;;;11.80;7.33;;;7.40;99.90;;;;;;5029263;28;20991;-69
2022/03/15 07:55:22;;;;;;;7.60;4.83;;;7.40;99.90;;;;;;5022319;28;20496;-68
2022/03/15 07:57:48;;;;;;;9.07;5.83;;;7.40;99.90;;;;;;5030748;28;20577;-69
2022/03/15 08:00:15;;;;;;;6.63;5.00;;;7.40;99.90;;;;;;5029635;28;20289;-69
2022/03/15 08:02:41;;;;;;;5.67;4.50;;;7.40;99.90;;;;;;5027114;28;20459;-70
2022/03/15 08:05:08;;;;;;;9.37;5.20;;;7.40;99.90;;;;;;5033367;28;20961;-69
2022/03/15 08:07:36;;;;;;;10.30;5.50;;;7.50;99.90;;;;;;5035133;28;20459;-70
2022/03/15 08:10:07;;;;;;;6.47;4.70;;;7.50;99.90;;;;;;5035153;28;20537;-69
2022/03/15 08:12:34;;;;;;;5.63;4.20;;;7.40;99.90;;;;;;5017775;28;20464;-70
2022/03/15 08:15:00;;;;;;;6.90;4.90;;;7.50;99.90;;;;;;5034506;28;20454;-70
2022/03/15 08:17:26;;;;;;;7.20;4.97;;;7.50;99.90;;;;;;5028079;28;20452;-70
2022/03/15 08:19:53;;;;;;;7.37;4.40;;;7.50;99.90;;;;;;5035421;28;20378;-70
2022/03/15 08:22:19;;;;;;;7.63;4.80;;;7.50;99.90;;;;;;5013288;28;20220;-68
2022/03/15 08:24:47;;;;;;;8.17;5.13;;;7.50;99.90;;;;;;5035620;28;20454;-70
2022/03/15 08:27:12;;;;;;;7.70;5.33;;;7.60;99.90;;;;;;5037683;28;20459;-68
2022/03/15 08:29:38;;;;;;;6.10;4.57;;;7.60;99.90;;;;;;5036600;28;20219;-69
2022/03/15 08:32:06;;;;;;;7.70;4.10;;;7.60;99.90;;;;;;5031405;28;20789;-69
2022/03/15 08:34:32;;;;;;;5.77;4.37;;;7.60;99.90;;;;;;5032335;28;20278;-69
2022/03/15 08:36:58;;;;;;;8.37;5.60;;;7.60;99.90;;;;;;5028410;28;20459;-68
2022/03/15 08:39:24;;;;;;;7.90;5.40;;;7.60;99.90;;;;;;5033419;28;20859;-69
2022/03/15 08:41:51;;;;;;;9.43;5.30;;;7.60;99.90;;;;;;5034997;28;20279;-70
2022/03/15 08:44:22;;;;;;;7.17;5.40;;;7.70;99.90;;;;;;5026069;28;20633;-70
2022/03/15 08:46:49;;;;;;;6.30;4.53;;;7.70;99.90;;;;;;5029763;28;20465;-69
2022/03/15 08:49:16;;;;;;;5.77;4.63;;;7.70;99.90;;;;;;5036982;28;20816;-71
2022/03/15 08:51:42;;;;;;;7.90;5.10;;;7.70;99.90;;;;;;5046958;28;20572;-72
2022/03/15 08:54:08;;;;;;;3.80;3.40;;;7.70;99.90;;;;;;5024764;28;20447;-69
2022/03/15 08:56:35;;;;;;;6.37;4.30;;;7.80;99.90;;;;;;5034505;28;20290;-69
2022/03/15 08:59:01;;;;;;;5.63;4.33;;;7.80;99.90;;;;;;5032174;28;20601;-69
2022/03/15 09:01:27;;;;;;;15.63;5.40;;;7.80;99.90;;;;;;5028217;28;20865;-70
2022/03/15 09:03:52;;;;;;;7.27;4.90;;;7.80;99.90;;;;;;5027538;28;20464;-70
2022/03/15 09:06:18;;;;;;;6.07;4.13;;;7.80;99.90;;;;;;5037530;28;20238;-70
2022/03/15 09:08:44;;;;;;;4.60;4.10;;;7.80;99.90;;;;;;5026185;28;20232;-72
2022/03/15 09:11:10;;;;;;;7.80;5.17;;;7.80;99.90;;;;;;5033940;28;20722;-72
2022/03/15 09:13:36;;;;;;;9.60;4.83;;;7.80;99.90;;;;;;5034331;28;20460;-70
2022/03/15 09:16:02;;;;;;;5.23;4.10;;;7.80;99.90;;;;;;5034326;28;20741;-71
2022/03/15 09:18:28;;;;;;;10.43;4.87;;;7.90;99.90;;;;;;5031698;28;20351;-70
2022/03/15 09:20:54;;;;;;;7.13;4.70;;;7.90;99.90;;;;;;5038050;28;20550;-71
2022/03/15 09:23:20;;;;;;;5.10;4.40;;;7.90;99.90;;;;;;5032477;28;20224;-71
2022/03/15 09:25:47;;;;;;;8.30;4.50;;;7.90;99.90;;;;;;5034906;28;20217;-70
2022/03/15 09:28:13;;;;;;;7.07;4.57;;;7.90;99.90;;;;;;5032688;28;20475;-70
2022/03/15 09:30:39;;;;;;;7.63;5.10;;;7.90;99.90;;;;;;5029202;28;20860;-70
2022/03/15 09:33:05;;;;;;;7.50;5.00;;;8.00;99.90;;;;;;5033293;28;20241;-73
2022/03/15 09:35:31;;;;;;;8.87;5.13;;;8.00;99.90;;;;;;5026595;28;20225;-70
2022/03/15 09:37:57;;;;;;;10.70;6.27;;;8.00;99.90;;;;;;5020153;28;20458;-70
2022/03/15 09:40:25;;;;;;;7.40;5.70;;;8.00;99.90;;;;;;5030979;28;20228;-71
2022/03/15 09:43:00;;;;;;;13.37;6.60;;;8.10;99.90;;;;;;5030403;28;20224;-70
2022/03/15 09:45:30;;;;;;;14.57;7.33;;;8.00;99.90;;;;;;5023251;28;20962;-69
2022/03/15 09:47:58;;;;;;;15.83;5.93;;;8.10;99.90;;;;;;5034412;28;20466;-71
2022/03/15 09:50:26;;;;;;;12.87;6.20;;;8.10;99.90;;;;;;5038817;28;20477;-69
2022/03/15 09:52:57;;;;;;;10.30;5.57;;;8.10;99.90;;;;;;5032056;28;20459;-70
2022/03/15 09:55:24;;;;;;;9.67;6.30;;;8.10;99.90;;;;;;5034661;28;20443;-69
2022/03/15 09:57:50;;;;;;;8.57;5.57;;;8.10;99.90;;;;;;5033596;28;20459;-71
2022/03/15 10:00:16;;;;;;;7.13;5.00;;;8.10;99.90;;;;;;5028312;28;20460;-70
2022/03/15 10:02:44;;;;;;;11.47;5.37;;;8.10;99.90;;;;;;5035580;28;20825;-69
2022/03/15 10:05:11;;;;;;;10.00;5.77;;;8.20;99.90;;;;;;5033237;28;20464;-72
2022/03/15 10:07:37;;;;;;;14.37;6.03;;;8.10;99.90;;;;;;5032335;28;20459;-70
2022/03/15 10:10:06;;;;;;;9.33;4.57;;;8.20;99.90;;;;;;5038344;28;20486;-69
2022/03/15 10:12:32;;;;;;;5.90;4.17;;;8.20;99.90;;;;;;5041226;28;20487;-71
2022/03/15 10:15:13;;;;;;;7.20;5.03;;;8.20;99.90;;;;;;5031558;28;20454;-72
2022/03/15 10:17:52;;;;;;;6.63;4.97;;;8.20;99.90;;;;;;5052639;28;20504;-70
2022/03/15 10:20:19;;;;;;;11.80;5.90;;;8.20;99.90;;;;;;5033897;28;20477;-69
2022/03/15 10:22:53;;;;;;;13.30;6.17;;;8.20;99.90;;;;;;5028610;28;20457;-69
2022/03/15 10:25:22;;;;;;;10.20;6.83;;;8.30;99.90;;;;;;5029004;28;20458;-70
2022/03/15 10:27:52;;;;;;;7.63;5.27;;;8.20;99.90;;;;;;5048986;28;21037;-71
2022/03/15 10:30:18;;;;;;;7.50;4.90;;;8.30;99.90;;;;;;5033323;28;20615;-71
2022/03/15 10:32:44;;;;;;;8.17;5.00;;;8.30;99.90;;;;;;5029816;28;20459;-69
2022/03/15 10:35:10;;;;;;;10.20;5.47;;;8.30;99.90;;;;;;5027266;28;20699;-73
2022/03/15 10:37:40;;;;;;;12.00;5.20;;;8.30;99.90;;;;;;5033286;28;20446;-70
2022/03/15 10:40:06;;;;;;;9.97;5.40;;;8.30;99.90;;;;;;5029141;28;20470;-69
2022/03/15 10:42:41;;;;;;;6.13;4.50;;;8.30;99.90;;;;;;5028885;28;20559;-70
2022/03/15 10:45:34;;;;;;;8.00;5.50;;;8.30;99.90;;;;;;5023069;28;20506;-73
2022/03/15 10:48:02;;;;;;;7.00;5.07;;;8.30;99.90;;;;;;5032932;28;20545;-69
2022/03/15 10:50:30;;;;;;;6.70;5.03;;;8.40;99.90;;;;;;5034999;28;21008;-69
2022/03/15 10:52:57;;;;;;;6.50;5.57;;;8.40;99.90;;;;;;5036420;28;20471;-68
2022/03/15 10:55:29;;;;;;;7.80;6.07;;;8.40;99.90;;;;;;5033167;28;20442;-69
2022/03/15 10:57:57;;;;;;;8.77;6.00;;;8.40;99.90;;;;;;5035464;28;20250;-70
2022/03/15 11:00:31;;;;;;;6.87;5.37;;;8.40;99.90;;;;;;5015509;28;20486;-71
2022/03/15 11:02:57;;;;;;;16.23;8.10;;;8.40;99.90;;;;;;5035349;28;20542;-69
2022/03/15 11:05:30;;;;;;;12.77;8.30;;;8.40;99.90;;;;;;5033168;28;20458;-69
2022/03/15 11:07:56;;;;;;;9.30;7.17;;;8.40;99.90;;;;;;5045627;28;20451;-72
2022/03/15 11:10:23;;;;;;;15.63;7.10;;;8.40;99.90;;;;;;5036654;28;20455;-69
2022/03/15 11:13:11;;;;;;;11.97;6.30;;;8.40;99.90;;;;;;5034937;28;20994;-71
2022/03/15 11:15:46;;;;;;;10.70;6.40;;;8.40;99.90;;;;;;5028646;28;20485;-70
2022/03/15 11:18:13;;;;;;;8.93;6.90;;;8.40;99.90;;;;;;5028747;28;20522;-70
2022/03/15 11:20:46;;;;;;;13.00;7.33;;;8.40;99.90;;;;;;5037671;28;20458;-73
2022/03/15 11:23:14;;;;;;;11.00;7.37;;;8.40;99.90;;;;;;5031451;28;20502;-69
2022/03/15 11:25:54;;;;;;;26.03;13.50;;;8.40;99.90;;;;;;5027323;28;20534;-70
2022/03/15 11:28:24;;;;;;;16.10;11.43;;;8.40;99.90;;;;;;5020040;28;20549;-71
2022/03/15 11:30:52;;;;;;;20.63;11.10;;;8.40;99.90;;;;;;5025561;28;20535;-70
2022/03/15 11:33:18;;;;;;;20.80;12.47;;;8.40;99.90;;;;;;5011652;28;20456;-70
2022/03/15 11:35:44;;;;;;;17.03;9.23;;;8.40;99.90;;;;;;5034714;28;20493;-69
2022/03/15 11:38:13;;;;;;;9.80;6.90;;;8.40;99.90;;;;;;5031033;28;20462;-69
2022/03/15 11:40:42;;;;;;;7.07;5.90;;;8.40;99.90;;;;;;5024087;28;20987;-69
2022/03/15 11:43:28;;;;;;;9.03;5.20;;;8.40;99.90;;;;;;5027781;28;21036;-72
2022/03/15 11:46:16;;;;;;;7.03;4.90;;;8.40;99.90;;;;;;5024715;28;20463;-70
2022/03/15 11:49:14;;;;;;;8.17;5.70;;;8.40;99.90;;;;;;5025543;28;20454;-69
2022/03/15 11:51:42;;;;;;;5.90;4.77;;;8.40;99.90;;;;;;5027440;28;20481;-72
2022/03/15 11:54:17;;;;;;;8.17;5.80;;;8.40;99.90;;;;;;5020625;28;20479;-70
2022/03/15 11:56:58;;;;;;;5.73;4.63;;;8.40;99.90;;;;;;5034300;28;20883;-70
2022/03/15 11:59:24;;;;;;;6.27;4.90;;;8.40;99.90;;;;;;5032329;28;20456;-69
2022/03/15 12:02:01;;;;;;;7.40;5.00;;;8.40;99.90;;;;;;5035291;28;20494;-72
2022/03/15 12:04:29;;;;;;;7.97;4.50;;;8.40;99.90;;;;;;5037587;28;21038;-70
2022/03/15 12:06:59;;;;;;;7.70;5.50;;;8.50;99.90;;;;;;5034747;28;20518;-70
2022/03/15 12:09:30;;;;;;;11.57;8.03;;;8.40;99.90;;;;;;5036062;28;20849;-69
2022/03/15 12:12:14;;;;;;;10.33;8.80;;;8.40;99.90;;;;;;5034005;28;20519;-72
2022/03/15 12:14:48;;;;;;;18.20;8.60;;;8.40;99.90;;;;;;5028958;28;20534;-69
2022/03/15 12:17:14;;;;;;;10.60;6.73;;;8.40;99.90;;;;;;5048144;28;20463;-72
2022/03/15 12:19:48;;;;;;;10.40;6.47;;;8.40;99.90;;;;;;5041145;28;20457;-69
2022/03/15 12:22:37;;;;;;;10.60;6.53;;;8.40;99.90;;;;;;5039585;28;20491;-69
2022/03/15 12:25:09;;;;;;;11.80;8.10;;;8.40;99.90;;;;;;5032454;28;20458;-71
2022/03/15 12:27:44;;;;;;;12.10;7.43;;;8.30;99.90;;;;;;5042644;28;20508;-70
2022/03/15 12:30:17;;;;;;;10.60;7.80;;;8.30;99.90;;;;;;5034026;28;20527;-68
2022/03/15 12:32:54;;;;;;;8.97;6.80;;;8.30;99.90;;;;;;5040669;28;20537;-71
2022/03/15 12:35:28;;;;;;;7.63;5.63;;;8.40;99.90;;;;;;5025094;28;20455;-69
2022/03/15 12:38:08;;;;;;;9.57;6.83;;;8.40;99.90;;;;;;5027252;28;20545;-69
2022/03/15 12:40:35;;;;;;;10.13;6.20;;;8.40;99.90;;;;;;5027357;28;20818;-70
2022/03/15 12:43:04;;;;;;;8.73;6.10;;;8.40;99.90;;;;;;5037289;28;20493;-70
2022/03/15 12:45:29;;;;;;;9.80;6.73;;;8.40;99.90;;;;;;5024451;28;20517;-69
2022/03/15 12:48:09;;;;;;;9.37;5.80;;;8.40;99.90;;;;;;5033261;28;20509;-70
2022/03/15 12:50:36;;;;;;;13.10;6.77;;;8.40;99.90;;;;;;5037917;28;20254;-74
2022/03/15 12:53:12;;;;;;;9.90;6.57;;;8.40;99.90;;;;;;5032187;28;20937;-69
2022/03/15 12:55:42;;;;;;;15.23;6.60;;;8.40;99.90;;;;;;5028989;28;20469;-71
2022/03/15 12:58:09;;;;;;;8.97;7.17;;;8.40;99.90;;;;;;5029572;28;20459;-70